Time;durP1;ratioP1;P1;durP2;ratioP2;P2;SDS_P1;SDS_P2;PMS_P1;PMS_P2;Temp;Humidity;BMP_temperature;BMP_pressure;BME280_temperature;BME280_humidity;BME280_pressure;Samples;Min_cycle;Max_cycle;Signal;HPM_P1;HPM_P2
2021/11/18 03:15:02;;;;;;;1999.90;999.90;;;;;;;;;;4970495;28;20748;-68
2021/11/18 03:17:48;;;;;;;1999.90;999.90;;;;;;;;;;4964145;28;20210;-68
2021/11/18 03:20:33;;;;;;;1999.90;999.90;;;;;;;;;;4971240;28;20589;-68
2021/11/18 03:23:18;;;;;;;1999.90;999.90;;;;;;;;;;4972282;28;20234;-66
2021/11/18 03:26:05;;;;;;;1999.90;999.90;;;;;;;;;;4968325;28;20238;-67
2021/11/18 03:28:49;;;;;;;1999.90;999.90;;;;;;;;;;4969427;28;20268;-68
2021/11/18 03:31:35;;;;;;;1999.90;999.90;;;;;;;;;;4975187;28;20213;-68
2021/11/18 03:34:22;;;;;;;1999.90;999.90;;;;;;;;;;4974618;28;20226;-67
2021/11/18 03:37:07;;;;;;;1999.90;999.90;;;;;;;;;;4972881;28;20211;-65
2021/11/18 03:39:54;;;;;;;1999.90;999.90;;;;;;;;;;4971185;28;20639;-64
2021/11/18 03:42:39;;;;;;;1999.90;999.90;;;;;;;;;;4971394;28;20783;-67
2021/11/18 03:45:25;;;;;;;1999.90;999.90;;;;;;;;;;4973636;28;20206;-68
2021/11/18 03:48:15;;;;;;;1999.90;999.90;;;;;;;;;;4972895;28;20237;-66
2021/11/18 03:51:01;;;;;;;1999.90;999.90;;;;;;;;;;4973347;28;20207;-69
2021/11/18 03:53:46;;;;;;;1999.90;999.90;;;;;;;;;;4973053;28;20313;-67
2021/11/18 03:56:38;;;;;;;1999.90;999.90;;;;;;;;;;4972982;28;20298;-68
2021/11/18 03:59:24;;;;;;;1999.90;999.90;;;;;;;;;;4973030;28;20221;-66
2021/11/18 04:02:09;;;;;;;1999.90;999.90;;;;;;;;;;4969222;28;20222;-66
2021/11/18 04:04:59;;;;;;;1999.90;999.90;;;;;;;;;;4972451;28;20231;-66
2021/11/18 04:07:44;;;;;;;1999.90;999.90;;;;;;;;;;4972782;28;20217;-68
2021/11/18 04:10:30;;;;;;;1999.90;999.90;;;;;;;;;;4973014;28;20205;-69
2021/11/18 04:13:15;;;;;;;1999.90;999.90;;;;;;;;;;4976438;28;20371;-68
2021/11/18 04:16:00;;;;;;;1999.90;999.90;;;;;;;;;;4989498;28;20210;-68
2021/11/18 04:18:45;;;;;;;1999.90;999.90;;;;;;;;;;4989270;28;20747;-68
2021/11/18 04:21:33;;;;;;;1999.90;999.90;;;;;;;;;;4981983;28;20213;-68
2021/11/18 04:24:19;;;;;;;1999.90;999.90;;;;;;;;;;4988256;28;20301;-68
2021/11/18 04:27:04;;;;;;;1999.90;999.90;;;;;;;;;;4990391;28;20429;-67
2021/11/18 04:29:50;;;;;;;1999.90;999.90;;;;;;;;;;4976457;28;20405;-68
2021/11/18 04:32:35;;;;;;;1999.90;999.90;;;;;;;;;;4984599;28;20236;-67
2021/11/18 04:35:20;;;;;;;1999.90;999.90;;;;;;;;;;4984142;28;20333;-68
2021/11/18 04:38:06;;;;;;;1999.90;999.90;;;;;;;;;;4975017;28;20719;-68
2021/11/18 04:40:51;;;;;;;1999.90;999.90;;;;;;;;;;4975325;28;20353;-68
2021/11/18 04:43:37;;;;;;;1999.90;999.90;;;;;;;;;;4986922;28;20240;-68
2021/11/18 04:46:23;;;;;;;1999.90;999.90;;;;;;;;;;4990318;28;20221;-68
2021/11/18 04:49:08;;;;;;;1999.90;999.90;;;;;;;;;;4981767;28;20254;-69
2021/11/18 04:51:52;;;;;;;1999.90;999.90;;;;;;;;;;4972800;28;20284;-66
2021/11/18 04:54:39;;;;;;;1999.90;999.90;;;;;;;;;;4979891;28;20232;-68
2021/11/18 04:57:28;;;;;;;1999.90;999.90;;;;;;;;;;4988007;28;20345;-68
2021/11/18 05:00:16;;;;;;;1999.90;999.90;;;;;;;;;;4979249;28;20225;-68
2021/11/18 05:03:01;;;;;;;1999.90;999.90;;;;;;;;;;4983982;28;20233;-68
2021/11/18 05:05:46;;;;;;;1999.90;999.90;;;;;;;;;;4988929;28;20742;-67
2021/11/18 05:08:31;;;;;;;1999.90;999.90;;;;;;;;;;4981947;28;20585;-68
2021/11/18 05:11:17;;;;;;;1999.90;999.90;;;;;;;;;;4983848;28;20212;-68
2021/11/18 05:14:03;;;;;;;1999.90;999.90;;;;;;;;;;4984106;28;20365;-68
2021/11/18 05:16:48;;;;;;;1999.90;999.90;;;;;;;;;;4978954;28;20212;-69
2021/11/18 05:19:33;;;;;;;1999.90;999.90;;;;;;;;;;4979067;28;20220;-68
2021/11/18 05:22:18;;;;;;;1999.90;999.90;;;;;;;;;;4987254;28;20315;-68
2021/11/18 05:25:04;;;;;;;1999.90;999.90;;;;;;;;;;4988834;28;20209;-68
2021/11/18 05:27:50;;;;;;;1999.90;999.90;;;;;;;;;;4986079;28;20441;-68
2021/11/18 05:30:35;;;;;;;1999.90;999.90;;;;;;;;;;4971140;28;20312;-69
2021/11/18 05:33:21;;;;;;;1999.90;999.90;;;;;;;;;;4976020;28;20242;-68
2021/11/18 05:36:07;;;;;;;1999.90;999.90;;;;;;;;;;4986091;28;20214;-69
2021/11/18 05:38:52;;;;;;;1999.90;999.90;;;;;;;;;;4972597;28;20301;-68
2021/11/18 05:41:37;;;;;;;1999.90;999.90;;;;;;;;;;4986526;28;20234;-69
2021/11/18 05:44:23;;;;;;;1999.90;999.90;;;;;;;;;;4987697;28;20377;-69
2021/11/18 05:47:08;;;;;;;1999.90;999.90;;;;;;;;;;4980240;28;20219;-69
2021/11/18 05:49:53;;;;;;;1999.90;999.90;;;;;;;;;;4973560;28;20433;-69
2021/11/18 05:52:38;;;;;;;1999.90;999.90;;;;;;;;;;4984012;28;20754;-69
2021/11/18 05:55:25;;;;;;;1999.90;999.90;;;;;;;;;;4981043;28;20716;-69
2021/11/18 05:58:10;;;;;;;1999.90;999.90;;;;;;;;;;4977210;28;20214;-69
2021/11/18 06:00:56;;;;;;;1999.90;999.90;;;;;;;;;;4976449;28;20307;-69
2021/11/18 06:03:41;;;;;;;1999.90;999.90;;;;;;;;;;4985541;28;20810;-70
2021/11/18 06:06:26;;;;;;;1999.90;999.90;;;;;;;;;;4970196;28;20241;-68
2021/11/18 06:09:11;;;;;;;1999.90;999.90;;;;;;;;;;4981617;28;20581;-70
2021/11/18 06:11:56;;;;;;;1999.90;999.90;;;;;;;;;;4985047;28;20337;-70
2021/11/18 06:14:42;;;;;;;1999.90;999.90;;;;;;;;;;4988651;28;20364;-68
2021/11/18 06:17:28;;;;;;;1999.90;999.90;;;;;;;;;;4987602;28;20569;-68
2021/11/18 06:20:13;;;;;;;1999.90;999.90;;;;;;;;;;4986893;28;20230;-68
2021/11/18 06:22:59;;;;;;;1999.90;999.90;;;;;;;;;;4987807;28;20273;-71
2021/11/18 06:25:43;;;;;;;1999.90;999.90;;;;;;;;;;4963957;28;20743;-70
2021/11/18 06:28:28;;;;;;;1999.90;999.90;;;;;;;;;;4988726;28;20286;-68
2021/11/18 06:31:14;;;;;;;1999.90;999.90;;;;;;;;;;4980528;28;20346;-67
2021/11/18 06:34:01;;;;;;;1999.90;999.90;;;;;;;;;;4972042;28;20307;-67
2021/11/18 06:36:46;;;;;;;1999.90;999.90;;;;;;;;;;4970199;28;20617;-69
2021/11/18 06:39:32;;;;;;;1999.90;999.90;;;;;;;;;;4970431;28;20207;-68
2021/11/18 06:42:17;;;;;;;1999.90;999.90;;;;;;;;;;4969451;28;20212;-68
2021/11/18 06:45:02;;;;;;;1999.90;999.90;;;;;;;;;;4968861;28;20226;-68
2021/11/18 06:47:47;;;;;;;1999.90;999.90;;;;;;;;;;4967877;28;20306;-67
2021/11/18 06:50:34;;;;;;;1999.90;999.90;;;;;;;;;;4968734;28;20697;-66
2021/11/18 06:53:19;;;;;;;1999.90;999.90;;;;;;;;;;4969941;28;20609;-66
2021/11/18 06:56:05;;;;;;;1999.90;999.90;;;;;;;;;;4967419;28;20317;-68
2021/11/18 06:58:51;;;;;;;1999.90;999.90;;;;;;;;;;4970427;28;20210;-67
2021/11/18 07:01:36;;;;;;;1999.90;999.90;;;;;;;;;;4967743;28;20229;-66
2021/11/18 07:04:21;;;;;;;1999.90;999.90;;;;;;;;;;4970917;28;20824;-69
2021/11/18 07:07:08;;;;;;;1999.90;999.90;;;;;;;;;;4973816;28;20817;-67
2021/11/18 07:09:52;;;;;;;1999.90;999.90;;;;;;;;;;4974492;28;20278;-68
2021/11/18 07:12:38;;;;;;;1999.90;999.90;;;;;;;;;;4971531;28;20683;-66
2021/11/18 07:15:24;;;;;;;1999.90;999.90;;;;;;;;;;4974006;28;20211;-67
2021/11/18 07:18:09;;;;;;;1999.90;999.90;;;;;;;;;;4974380;28;20262;-67
2021/11/18 07:20:55;;;;;;;1999.90;999.90;;;;;;;;;;4975282;28;20273;-65
2021/11/18 07:23:42;;;;;;;1999.90;999.90;;;;;;;;;;4974727;28;20234;-65
2021/11/18 07:26:27;;;;;;;1999.90;999.90;;;;;;;;;;4974823;28;20715;-64
2021/11/18 07:29:12;;;;;;;1999.90;999.90;;;;;;;;;;4973904;28;20321;-67
2021/11/18 07:31:59;;;;;;;1999.90;999.90;;;;;;;;;;4973490;28;20222;-68
2021/11/18 07:34:44;;;;;;;1999.90;999.90;;;;;;;;;;4969042;28;20234;-67
2021/11/18 07:37:29;;;;;;;1999.90;999.90;;;;;;;;;;4982387;28;20243;-67
2021/11/18 07:40:17;;;;;;;1999.90;999.90;;;;;;;;;;4979745;28;20327;-67
2021/11/18 07:43:05;;;;;;;1999.90;999.90;;;;;;;;;;4983937;28;20974;-67
2021/11/18 07:45:51;;;;;;;1999.90;999.90;;;;;;;;;;4986710;28;20706;-68
2021/11/18 07:48:36;;;;;;;1999.90;999.90;;;;;;;;;;4991818;28;20746;-67
2021/11/18 07:51:21;;;;;;;1999.90;999.90;;;;;;;;;;4985675;28;20213;-67
2021/11/18 07:54:07;;;;;;;1999.90;999.90;;;;;;;;;;4982419;28;20810;-66
2021/11/18 07:56:53;;;;;;;1999.90;999.90;;;;;;;;;;4979871;28;20338;-67
2021/11/18 07:59:38;;;;;;;1999.90;999.90;;;;;;;;;;4986714;28;20300;-66
2021/11/18 08:02:23;;;;;;;1999.90;999.90;;;;;;;;;;4991228;28;20849;-68
2021/11/18 08:05:08;;;;;;;1999.90;999.90;;;;;;;;;;4979903;28;20808;-68
2021/11/18 08:07:53;;;;;;;1999.90;999.90;;;;;;;;;;4980455;28;20852;-68
2021/11/18 08:10:39;;;;;;;1999.90;999.90;;;;;;;;;;4980589;28;20252;-67
2021/11/18 08:13:25;;;;;;;1999.90;999.90;;;;;;;;;;4984793;28;20241;-65
2021/11/18 08:16:10;;;;;;;1999.90;999.90;;;;;;;;;;4982215;28;20296;-66
2021/11/18 08:18:54;;;;;;;1999.90;999.90;;;;;;;;;;4986929;28;20294;-66
2021/11/18 08:21:40;;;;;;;1999.90;999.90;;;;;;;;;;4980952;28;20240;-66
2021/11/18 08:24:25;;;;;;;1999.90;999.90;;;;;;;;;;4981685;28;20241;-66
2021/11/18 08:27:10;;;;;;;1999.90;999.90;;;;;;;;;;4985427;28;20210;-67
2021/11/18 08:29:56;;;;;;;1999.90;999.90;;;;;;;;;;4985221;28;20222;-66
2021/11/18 08:32:42;;;;;;;1999.90;999.90;;;;;;;;;;4977691;28;20490;-66
2021/11/18 08:35:31;;;;;;;1999.90;999.90;;;;;;;;;;4978744;28;20715;-66
2021/11/18 08:38:18;;;;;;;1999.90;999.90;;;;;;;;;;4989305;28;20222;-66
2021/11/18 08:41:04;;;;;;;1999.90;999.90;;;;;;;;;;4988609;28;20229;-66
2021/11/18 08:43:51;;;;;;;1999.90;999.90;;;;;;;;;;4974610;28;20254;-66
2021/11/18 08:46:37;;;;;;;1999.90;999.90;;;;;;;;;;4980156;28;20443;-65
2021/11/18 08:49:23;;;;;;;1999.90;999.90;;;;;;;;;;4976109;28;20211;-65
2021/11/18 08:52:10;;;;;;;1999.90;999.90;;;;;;;;;;4979391;28;20262;-66
2021/11/18 08:54:56;;;;;;;1999.90;999.90;;;;;;;;;;4988443;28;20205;-66
2021/11/18 08:57:41;;;;;;;1999.90;999.90;;;;;;;;;;4987624;28;20234;-67
2021/11/18 09:00:28;;;;;;;1999.90;999.90;;;;;;;;;;4979531;28;20218;-67
2021/11/18 09:03:15;;;;;;;1999.90;999.90;;;;;;;;;;4973022;28;20302;-65
2021/11/18 09:06:01;;;;;;;1999.90;999.90;;;;;;;;;;4976166;28;20324;-67
2021/11/18 09:08:46;;;;;;;1999.90;999.90;;;;;;;;;;4967436;28;20222;-67
2021/11/18 09:11:32;;;;;;;1999.90;999.90;;;;;;;;;;4982977;28;20222;-66
2021/11/18 09:14:18;;;;;;;1999.90;999.90;;;;;;;;;;4978073;28;20246;-66
2021/11/18 09:17:05;;;;;;;1999.90;999.90;;;;;;;;;;4988243;28;20210;-67
2021/11/18 09:19:51;;;;;;;1999.90;999.90;;;;;;;;;;4978715;28;20214;-67
2021/11/18 09:22:37;;;;;;;1999.90;999.90;;;;;;;;;;4969820;28;20227;-67
2021/11/18 09:25:22;;;;;;;1999.90;999.90;;;;;;;;;;4972931;28;20809;-66
2021/11/18 09:28:08;;;;;;;1999.90;999.90;;;;;;;;;;4978904;28;20818;-66
2021/11/18 09:30:56;;;;;;;1999.90;999.90;;;;;;;;;;4971413;28;20334;-68
2021/11/18 09:33:42;;;;;;;1999.90;999.90;;;;;;;;;;4986195;28;20635;-66
2021/11/18 09:36:29;;;;;;;1999.90;999.90;;;;;;;;;;4988041;28;20211;-67
2021/11/18 09:39:14;;;;;;;1999.90;999.90;;;;;;;;;;4988582;28;20709;-67
2021/11/18 09:42:02;;;;;;;1999.90;999.90;;;;;;;;;;4980737;28;20381;-67
2021/11/18 09:44:57;;;;;;;1999.90;999.90;;;;;;;;;;4979414;28;20318;-66
2021/11/18 09:48:12;;;;;;;1999.90;999.90;;;;;;;;;;4989102;28;20211;-67
2021/11/18 09:50:59;;;;;;;1999.90;999.90;;;;;;;;;;4988829;28;20215;-67
2021/11/18 09:54:00;;;;;;;1999.90;999.90;;;;;;;;;;4981592;28;20439;-66
2021/11/18 09:56:55;;;;;;;1999.90;999.90;;;;;;;;;;4962294;28;20701;-65
2021/11/18 09:59:43;;;;;;;1999.90;999.90;;;;;;;;;;4971882;28;20218;-67
2021/11/18 10:02:56;;;;;;;1999.90;999.90;;;;;;;;;;4971402;28;20228;-65
2021/11/18 10:05:46;;;;;;;1999.90;999.90;;;;;;;;;;4977577;28;20289;-66
2021/11/18 10:08:33;;;;;;;1999.90;999.90;;;;;;;;;;4970018;28;20697;-64
2021/11/18 10:11:20;;;;;;;1999.90;999.90;;;;;;;;;;4972362;28;20213;-66
2021/11/18 10:14:29;;;;;;;1999.90;999.90;;;;;;;;;;4985360;28;20238;-68
2021/11/18 10:17:17;;;;;;;1999.90;999.90;;;;;;;;;;4978605;28;20208;-67
2021/11/18 10:20:05;;;;;;;1999.90;999.90;;;;;;;;;;4970597;28;20895;-67
2021/11/18 10:22:52;;;;;;;1999.90;999.90;;;;;;;;;;4966709;28;20314;-67
2021/11/18 10:25:39;;;;;;;1999.90;999.90;;;;;;;;;;4972375;28;20579;-66
2021/11/18 10:28:31;;;;;;;1999.90;999.90;;;;;;;;;;4988714;28;20767;-67
2021/11/18 10:31:22;;;;;;;1999.90;999.90;;;;;;;;;;4972170;28;20306;-67
2021/11/18 10:34:11;;;;;;;1999.90;999.90;;;;;;;;;;4972891;28;20226;-66
2021/11/18 10:37:03;;;;;;;1999.90;999.90;;;;;;;;;;4976714;28;20241;-67
2021/11/18 10:39:50;;;;;;;1999.90;999.90;;;;;;;;;;4968726;28;20216;-65
2021/11/18 10:42:36;;;;;;;1999.90;999.90;;;;;;;;;;4974574;28;20359;-65
2021/11/18 10:45:35;;;;;;;1999.90;999.90;;;;;;;;;;4970286;28;20216;-68
2021/11/18 10:48:21;;;;;;;1999.90;999.90;;;;;;;;;;4967091;28;20482;-65
2021/11/18 10:51:07;;;;;;;1999.90;999.90;;;;;;;;;;4972151;28;20204;-66
2021/11/18 10:53:55;;;;;;;1999.90;999.90;;;;;;;;;;4969957;28;20283;-66
2021/11/18 10:56:46;;;;;;;1999.90;999.90;;;;;;;;;;4980871;28;20697;-67
2021/11/18 10:59:35;;;;;;;1999.90;999.90;;;;;;;;;;4974211;28;20284;-66
2021/11/18 11:02:25;;;;;;;1999.90;999.90;;;;;;;;;;4967334;28;20238;-66
2021/11/18 11:05:24;;;;;;;1999.90;999.90;;;;;;;;;;4974552;28;20204;-67
2021/11/18 11:08:23;;;;;;;1999.90;999.90;;;;;;;;;;4969063;28;20219;-66
2021/11/18 11:11:11;;;;;;;1999.90;999.90;;;;;;;;;;4980262;28;20702;-66
2021/11/18 11:14:12;;;;;;;1999.90;999.90;;;;;;;;;;4987178;28;20643;-64
2021/11/18 11:17:04;;;;;;;1999.90;999.90;;;;;;;;;;4980668;28;20207;-67
2021/11/18 11:19:51;;;;;;;1999.90;999.90;;;;;;;;;;4965244;28;20717;-66
2021/11/18 11:22:40;;;;;;;1999.90;999.90;;;;;;;;;;4968701;28;20232;-66
2021/11/18 11:25:43;;;;;;;1999.90;999.90;;;;;;;;;;4971471;28;20204;-66
2021/11/18 11:28:33;;;;;;;1999.90;999.90;;;;;;;;;;4971006;28;20216;-67
2021/11/18 11:31:34;;;;;;;1999.90;999.90;;;;;;;;;;4975525;28;20199;-67
2021/11/18 11:34:39;;;;;;;1999.90;999.90;;;;;;;;;;4969395;28;20293;-66
2021/11/18 11:37:41;;;;;;;1999.90;999.90;;;;;;;;;;4969999;28;20250;-69
2021/11/18 11:40:31;;;;;;;1999.90;999.90;;;;;;;;;;4982771;28;20212;-66
2021/11/18 11:43:25;;;;;;;1999.90;999.90;;;;;;;;;;4963049;28;20239;-66
2021/11/18 11:46:19;;;;;;;1999.90;999.90;;;;;;;;;;4984648;28;20212;-65
2021/11/18 11:49:22;;;;;;;1999.90;999.90;;;;;;;;;;4983162;28;20312;-67
2021/11/18 11:52:17;;;;;;;1999.90;999.90;;;;;;;;;;4970287;28;20212;-67
2021/11/18 11:55:14;;;;;;;1999.90;999.90;;;;;;;;;;4969915;28;20695;-65
2021/11/18 11:58:03;;;;;;;1999.90;999.90;;;;;;;;;;4970330;28;20237;-64
2021/11/18 12:00:54;;;;;;;1999.90;999.90;;;;;;;;;;4973233;28;20228;-66
2021/11/18 12:03:48;;;;;;;1999.90;999.90;;;;;;;;;;4969621;28;20294;-66
2021/11/18 12:06:39;;;;;;;1999.90;999.90;;;;;;;;;;4978593;28;20207;-65
2021/11/18 12:09:28;;;;;;;1999.90;999.90;;;;;;;;;;4970220;28;20494;-64
2021/11/18 12:12:21;;;;;;;1999.90;999.90;;;;;;;;;;4969244;28;20295;-66
2021/11/18 12:15:08;;;;;;;1999.90;999.90;;;;;;;;;;4978548;28;20381;-67
2021/11/18 12:17:58;;;;;;;1999.90;999.90;;;;;;;;;;4954409;29;20786;-67
2021/11/18 12:20:43;;;;;;;1999.90;999.90;;;;;;;;;;4954950;29;20209;-68
2021/11/18 12:23:46;;;;;;;1999.90;999.90;;;;;;;;;;4954345;29;20236;-67
2021/11/18 12:26:43;;;;;;;1999.90;999.90;;;;;;;;;;4954455;29;20204;-68
2021/11/18 12:29:46;;;;;;;1999.90;999.90;;;;;;;;;;4954911;29;20204;-68
2021/11/18 12:32:35;;;;;;;1999.90;999.90;;;;;;;;;;4953705;29;20891;-67
2021/11/18 12:35:39;;;;;;;1999.90;999.90;;;;;;;;;;4954819;29;20415;-67
2021/11/18 12:38:30;;;;;;;1999.90;999.90;;;;;;;;;;4954586;29;20212;-67
2021/11/18 12:41:45;;;;;;;1999.90;999.90;;;;;;;;;;4954848;29;20256;-68
2021/11/18 12:44:50;;;;;;;1999.90;999.90;;;;;;;;;;4954140;29;20224;-67
2021/11/18 12:48:00;;;;;;;1999.90;999.90;;;;;;;;;;4954265;29;20213;-67
2021/11/18 12:50:49;;;;;;;1999.90;999.90;;;;;;;;;;4954288;29;20341;-66
2021/11/18 12:53:36;;;;;;;1999.90;999.90;;;;;;;;;;4954087;29;20723;-68
2021/11/18 12:56:25;;;;;;;1999.90;999.90;;;;;;;;;;4953946;29;20213;-69
2021/11/18 12:59:11;;;;;;;1999.90;999.90;;;;;;;;;;4954110;29;20332;-68
2021/11/18 13:01:58;;;;;;;1999.90;999.90;;;;;;;;;;4953815;28;20599;-68
2021/11/18 13:04:45;;;;;;;1999.90;999.90;;;;;;;;;;4953720;29;20734;-68
2021/11/18 13:07:36;;;;;;;1999.90;999.90;;;;;;;;;;4953913;29;20397;-68
2021/11/18 13:10:26;;;;;;;1999.90;999.90;;;;;;;;;;4954096;29;20622;-68
2021/11/18 13:13:27;;;;;;;1999.90;999.90;;;;;;;;;;4953597;29;20224;-68
2021/11/18 13:16:30;;;;;;;1999.90;999.90;;;;;;;;;;4953515;29;20291;-68
2021/11/18 13:19:24;;;;;;;1999.90;999.90;;;;;;;;;;4953943;29;20321;-68
2021/11/18 13:22:23;;;;;;;1999.90;999.90;;;;;;;;;;4953692;29;20284;-68
2021/11/18 13:25:13;;;;;;;1999.90;999.90;;;;;;;;;;4953789;29;20296;-68
2021/11/18 13:28:06;;;;;;;1999.90;999.90;;;;;;;;;;4953582;29;20814;-68
2021/11/18 13:30:52;;;;;;;1999.90;999.90;;;;;;;;;;4953665;29;20245;-69
2021/11/18 13:33:39;;;;;;;1999.90;999.90;;;;;;;;;;4953355;29;20834;-68
2021/11/18 13:36:26;;;;;;;1999.90;999.90;;;;;;;;;;4953347;29;20289;-68
2021/11/18 13:39:16;;;;;;;1999.90;999.90;;;;;;;;;;4953612;29;20300;-68
2021/11/18 13:42:14;;;;;;;1999.90;999.90;;;;;;;;;;4953536;29;20214;-67
2021/11/18 13:45:09;;;;;;;1999.90;999.90;;;;;;;;;;4953398;29;20224;-67
2021/11/18 13:47:56;;;;;;;1999.90;999.90;;;;;;;;;;4953097;29;20205;-65
2021/11/18 13:50:44;;;;;;;1999.90;999.90;;;;;;;;;;4953351;29;20692;-67
2021/11/18 13:53:39;;;;;;;1999.90;999.90;;;;;;;;;;4952443;29;20560;-68
2021/11/18 13:56:27;;;;;;;1999.90;999.90;;;;;;;;;;4952813;29;20289;-67
2021/11/18 13:59:17;;;;;;;1999.90;999.90;;;;;;;;;;4953163;29;20209;-68
2021/11/18 14:02:04;;;;;;;1999.90;999.90;;;;;;;;;;4953046;29;20671;-66
2021/11/18 14:04:50;;;;;;;1999.90;999.90;;;;;;;;;;4952941;29;20233;-68
2021/11/18 14:07:36;;;;;;;1999.90;999.90;;;;;;;;;;4952707;29;20586;-68
2021/11/18 14:10:27;;;;;;;1999.90;999.90;;;;;;;;;;4952660;29;20214;-69
2021/11/18 14:13:13;;;;;;;1999.90;999.90;;;;;;;;;;4951745;28;20309;-67
2021/11/18 14:16:00;;;;;;;1999.90;999.90;;;;;;;;;;4952564;29;20210;-68
2021/11/18 14:18:58;;;;;;;1999.90;999.90;;;;;;;;;;4952865;29;20213;-68
2021/11/18 14:21:46;;;;;;;1999.90;999.90;;;;;;;;;;4952908;29;20315;-68
2021/11/18 14:24:34;;;;;;;1999.90;999.90;;;;;;;;;;4952352;29;20280;-68
2021/11/18 14:27:25;;;;;;;1999.90;999.90;;;;;;;;;;4952395;29;20209;-68
2021/11/18 14:30:11;;;;;;;1999.90;999.90;;;;;;;;;;4952695;29;20260;-68
2021/11/18 14:33:00;;;;;;;1999.90;999.90;;;;;;;;;;4952000;29;20226;-69
2021/11/18 14:35:48;;;;;;;1999.90;999.90;;;;;;;;;;4973117;28;20223;-67
2021/11/18 14:38:36;;;;;;;1999.90;999.90;;;;;;;;;;4964997;28;20692;-66
2021/11/18 14:41:26;;;;;;;1999.90;999.90;;;;;;;;;;4986058;28;20217;-67
2021/11/18 14:44:12;;;;;;;1999.90;999.90;;;;;;;;;;4967773;28;20260;-67
2021/11/18 14:46:59;;;;;;;1999.90;999.90;;;;;;;;;;4964068;28;20522;-66
2021/11/18 14:49:47;;;;;;;1999.90;999.90;;;;;;;;;;4963795;28;20242;-66
2021/11/18 14:52:33;;;;;;;1999.90;999.90;;;;;;;;;;4965465;28;20584;-67
2021/11/18 14:55:25;;;;;;;1999.90;999.90;;;;;;;;;;4977439;28;20212;-68
2021/11/18 14:58:11;;;;;;;1999.90;999.90;;;;;;;;;;4982407;28;20347;-67
2021/11/18 15:00:58;;;;;;;1999.90;999.90;;;;;;;;;;4969571;28;20262;-66
2021/11/18 15:03:44;;;;;;;1999.90;999.90;;;;;;;;;;4977804;28;20228;-68
2021/11/18 15:06:32;;;;;;;1999.90;999.90;;;;;;;;;;4986203;28;20216;-66
2021/11/18 15:09:18;;;;;;;1999.90;999.90;;;;;;;;;;4978801;28;20209;-67
2021/11/18 15:12:05;;;;;;;1999.90;999.90;;;;;;;;;;4987616;28;20215;-66
2021/11/18 15:14:50;;;;;;;1999.90;999.90;;;;;;;;;;4969539;28;20606;-68
2021/11/18 15:17:36;;;;;;;1999.90;999.90;;;;;;;;;;4967904;28;20266;-69
2021/11/18 15:20:22;;;;;;;1999.90;999.90;;;;;;;;;;4984978;28;20216;-67
2021/11/18 15:23:10;;;;;;;1999.90;999.90;;;;;;;;;;4984925;28;20252;-67
2021/11/18 15:25:55;;;;;;;1999.90;999.90;;;;;;;;;;4969922;28;20700;-67
2021/11/18 15:28:40;;;;;;;1999.90;999.90;;;;;;;;;;4976714;28;20259;-68
2021/11/18 15:31:25;;;;;;;1999.90;999.90;;;;;;;;;;4991517;28;20220;-67
2021/11/18 15:34:11;;;;;;;1999.90;999.90;;;;;;;;;;4991728;28;20418;-68
2021/11/18 15:36:57;;;;;;;1999.90;999.90;;;;;;;;;;4981121;28;20581;-66
2021/11/18 15:39:43;;;;;;;1999.90;999.90;;;;;;;;;;4990476;28;20207;-68
2021/11/18 15:42:28;;;;;;;1999.90;999.90;;;;;;;;;;4990196;28;20215;-65
2021/11/18 15:45:14;;;;;;;1999.90;999.90;;;;;;;;;;4991880;28;20211;-66
2021/11/18 15:48:00;;;;;;;1999.90;999.90;;;;;;;;;;4989566;28;20650;-67
2021/11/18 15:50:47;;;;;;;1999.90;999.90;;;;;;;;;;4980624;28;20508;-67
2021/11/18 15:53:33;;;;;;;1999.90;999.90;;;;;;;;;;4972530;28;20229;-67
2021/11/18 15:56:21;;;;;;;1999.90;999.90;;;;;;;;;;4975969;28;20213;-68
2021/11/18 15:59:07;;;;;;;1999.90;999.90;;;;;;;;;;4975883;28;20772;-67
2021/11/18 16:01:53;;;;;;;1999.90;999.90;;;;;;;;;;4991343;28;20215;-67
2021/11/18 16:04:39;;;;;;;1999.90;999.90;;;;;;;;;;4980934;28;20621;-66
2021/11/18 16:07:26;;;;;;;1999.90;999.90;;;;;;;;;;4991554;28;20435;-67
2021/11/18 16:10:11;;;;;;;1999.90;999.90;;;;;;;;;;4982866;28;20423;-66
2021/11/18 16:12:59;;;;;;;1999.90;999.90;;;;;;;;;;4982531;28;20231;-67
2021/11/18 16:15:51;;;;;;;1999.90;999.90;;;;;;;;;;4970555;28;20212;-66
2021/11/18 16:18:37;;;;;;;1999.90;999.90;;;;;;;;;;4979917;28;20235;-65
2021/11/18 16:21:24;;;;;;;1999.90;999.90;;;;;;;;;;4979849;28;20721;-67
2021/11/18 16:24:09;;;;;;;1999.90;999.90;;;;;;;;;;4991417;28;20720;-68
2021/11/18 16:26:55;;;;;;;1999.90;999.90;;;;;;;;;;4984772;28;20364;-68
2021/11/18 16:29:41;;;;;;;1999.90;999.90;;;;;;;;;;4983657;28;20254;-66
2021/11/18 16:32:26;;;;;;;1999.90;999.90;;;;;;;;;;4980417;28;20425;-65
2021/11/18 16:35:11;;;;;;;1999.90;999.90;;;;;;;;;;4991013;28;20206;-66
2021/11/18 16:37:57;;;;;;;1999.90;999.90;;;;;;;;;;4979213;28;20268;-68
2021/11/18 16:40:44;;;;;;;1999.90;999.90;;;;;;;;;;4968362;28;20855;-66
2021/11/18 16:43:29;;;;;;;1999.90;999.90;;;;;;;;;;4978076;28;20743;-65
2021/11/18 16:46:16;;;;;;;1999.90;999.90;;;;;;;;;;4977488;28;20212;-68
2021/11/18 16:49:01;;;;;;;1999.90;999.90;;;;;;;;;;4989969;28;20248;-67
2021/11/18 16:51:48;;;;;;;1999.90;999.90;;;;;;;;;;4988556;28;20213;-65
2021/11/18 16:54:33;;;;;;;1999.90;999.90;;;;;;;;;;4978821;28;20300;-65
2021/11/18 16:57:18;;;;;;;1999.90;999.90;;;;;;;;;;4971625;28;20212;-69
2021/11/18 17:00:05;;;;;;;1999.90;999.90;;;;;;;;;;4979220;28;20212;-67
2021/11/18 17:02:51;;;;;;;1999.90;999.90;;;;;;;;;;4990111;28;20236;-66
2021/11/18 17:05:37;;;;;;;1999.90;999.90;;;;;;;;;;4990499;28;20273;-67
2021/11/18 17:08:23;;;;;;;1999.90;999.90;;;;;;;;;;4976861;28;20216;-67
2021/11/18 17:11:09;;;;;;;1999.90;999.90;;;;;;;;;;4977673;28;20344;-67
2021/11/18 17:13:54;;;;;;;1999.90;999.90;;;;;;;;;;4968713;28;20236;-66
2021/11/18 17:16:41;;;;;;;1999.90;999.90;;;;;;;;;;4972189;28;20354;-65
2021/11/18 17:19:27;;;;;;;1999.90;999.90;;;;;;;;;;4973011;28;20230;-66
2021/11/18 17:22:14;;;;;;;1999.90;999.90;;;;;;;;;;4973245;28;20214;-67
2021/11/18 17:25:00;;;;;;;1999.90;999.90;;;;;;;;;;4974870;28;20307;-68
2021/11/18 17:27:45;;;;;;;1999.90;999.90;;;;;;;;;;4975439;28;20238;-67
2021/11/18 17:30:31;;;;;;;1999.90;999.90;;;;;;;;;;4974968;28;20270;-69
2021/11/18 17:33:18;;;;;;;1999.90;999.90;;;;;;;;;;4973294;28;20281;-66
2021/11/18 17:36:07;;;;;;;1999.90;999.90;;;;;;;;;;4972266;28;20212;-67
2021/11/18 17:38:54;;;;;;;1999.90;999.90;;;;;;;;;;4972770;28;20204;-66
2021/11/18 17:41:39;;;;;;;1999.90;999.90;;;;;;;;;;4972437;28;20344;-68
2021/11/18 17:44:24;;;;;;;1999.90;999.90;;;;;;;;;;4971963;28;20360;-67
2021/11/18 17:47:11;;;;;;;1999.90;999.90;;;;;;;;;;4971793;28;20225;-66
2021/11/18 17:49:56;;;;;;;1999.90;999.90;;;;;;;;;;4969693;28;20423;-67
2021/11/18 17:52:45;;;;;;;1999.90;999.90;;;;;;;;;;4971173;28;20216;-68
2021/11/18 17:55:31;;;;;;;1999.90;999.90;;;;;;;;;;4972294;28;20201;-66
2021/11/18 17:58:16;;;;;;;1999.90;999.90;;;;;;;;;;4972331;28;20208;-67
2021/11/18 18:01:03;;;;;;;1999.90;999.90;;;;;;;;;;4972172;28;20712;-68
2021/11/18 18:03:49;;;;;;;1999.90;999.90;;;;;;;;;;4971861;28;20287;-67
2021/11/18 18:06:35;;;;;;;1999.90;999.90;;;;;;;;;;4971579;28;20328;-67
2021/11/18 18:09:22;;;;;;;1999.90;999.90;;;;;;;;;;4972215;28;20249;-67
2021/11/18 18:12:08;;;;;;;1999.90;999.90;;;;;;;;;;4971852;28;20800;-68
2021/11/18 18:14:54;;;;;;;1999.90;999.90;;;;;;;;;;4972097;28;20280;-66
2021/11/18 18:17:41;;;;;;;1999.90;999.90;;;;;;;;;;4970868;28;20292;-67
2021/11/18 18:20:28;;;;;;;1999.90;999.90;;;;;;;;;;4970642;28;20231;-67
2021/11/18 18:23:13;;;;;;;1999.90;999.90;;;;;;;;;;4966364;28;20728;-67
2021/11/18 18:25:59;;;;;;;1999.90;999.90;;;;;;;;;;4971670;28;20233;-68
2021/11/18 18:28:44;;;;;;;1999.90;999.90;;;;;;;;;;4971832;28;20287;-69
2021/11/18 18:31:31;;;;;;;1999.90;999.90;;;;;;;;;;4970376;28;20220;-67
2021/11/18 18:34:17;;;;;;;1999.90;999.90;;;;;;;;;;4971521;28;20233;-68
2021/11/18 18:37:03;;;;;;;1999.90;999.90;;;;;;;;;;4971230;28;20207;-69
2021/11/18 18:39:49;;;;;;;1999.90;999.90;;;;;;;;;;4971212;28;20787;-68
2021/11/18 18:42:36;;;;;;;1999.90;999.90;;;;;;;;;;4971313;28;20622;-67
2021/11/18 18:45:21;;;;;;;1999.90;999.90;;;;;;;;;;4971482;28;20241;-67
2021/11/18 18:48:07;;;;;;;1999.90;999.90;;;;;;;;;;4971307;28;20333;-68
2021/11/18 18:50:54;;;;;;;1999.90;999.90;;;;;;;;;;4952343;29;20292;-64